Delhi Cantonment, India

1:02 AM IST on March 29, 2017 (GMT +0530)
Shantipath @ Satya Marg | | Change Station

Elev 787 ft 28.59 °N, 77.19 °E | Updated 20 seconds ago

Haze
Haze
79.1 °F
Feels Like 81 °F
N
0.0
Wind Variable Wind from NW
Gusts 2.0 mph

Today
High -- | Low -- °F
--% Chance of Precip.
Yesterday
High -- | Low -- °F
Precip. -- in
Pressure 29.83 in
Visibility 1.9 miles
Clouds
Heat Index 81 °F
Dew Point 62 °F
Humidity 57%
Rainfall 0.00 in
Snow Depth Not available.
6:15 AM 6:37 PM
New Moon, 1% visible
METAR VIDP 281900Z 00000KT 3000 HZ NSC 25/16 Q1010 NOSIG
Pressure 29.83 in
Visibility 1.9 miles
Clouds
Heat Index 81 °F
Dew Point 62 °F
Humidity 57%
Rainfall 0.00 in
Snow Depth Not available.
6:15 AM 6:37 PM
New Moon, 1% visible
METAR VIDP 281900Z 00000KT 3000 HZ NSC 25/16 Q1010 NOSIG

Get Severe Weather Alerts

Thanks for signing up!

Be on the lookout for a verification email in your inbox.

You'll start receiving the daily forecast at 8 AM.

×

10-Day Weather Forecast

No radar image for this location.
×

Almanac

Astronomy

Mar. 29, 2017 Rise Set
Actual Time
Civil Twilight
Nautical Twilight
Astronomical Twilight
Moon
Length of Visible Light
Length of Day
Tomorrow will be .
, % of the Moon is Illuminated

Today's Extremes

Country Highs Country Lows

Community

WunderPhotos

Upload Photos

1,962,540 photos uploaded!

WunderBlog® & News

Nearby

Air Quality

  Air Quality AQ Index Pollutant
Not available.

Snow Depth

Station Depth Elevation

Earthquake Activity

City Distance Mag. Time & Date
Minimum magnitude displayed is 2.5.

Earthquake Activity

City Distance Mag. Time & Date
Minimum magnitude displayed is 2.5.

Coastal Water Temperatures

Place Temperature

Stations

Nearby Weather Stations

Station Location Temp. Windchill Dew Point Humidity Wind Precip. Elev Updated Type